createdAt,value
2018-09-19T00:01:02.384Z,72.40
2018-09-19T00:03:29.706Z,69.10
2018-09-19T00:05:56.860Z,69.40
2018-09-19T00:08:24.108Z,70.10
2018-09-19T00:10:51.271Z,71.30
2018-09-19T00:13:18.431Z,71.70
2018-09-19T00:15:45.581Z,72.50
2018-09-19T00:18:12.758Z,73.60
2018-09-19T00:20:39.956Z,74.50
2018-09-19T00:23:07.128Z,74.90
2018-09-19T00:25:34.308Z,75.30
2018-09-19T00:28:01.488Z,75.50
2018-09-19T00:30:28.659Z,76.00
2018-09-19T00:32:55.816Z,76.10
2018-09-19T00:35:22.997Z,75.90
2018-09-19T00:37:50.157Z,75.80
2018-09-19T00:40:17.390Z,76.10
2018-09-19T00:42:44.710Z,76.10
2018-09-19T00:45:12.171Z,76.30
2018-09-19T00:47:39.415Z,76.00
2018-09-19T00:50:06.617Z,76.10
2018-09-19T00:52:33.850Z,76.10
2018-09-19T00:55:00.982Z,76.30
2018-09-19T00:57:28.150Z,76.20
2018-09-19T00:59:55.306Z,75.70
2018-09-19T01:02:22.496Z,75.70
2018-09-19T01:04:49.653Z,75.30
2018-09-19T01:07:16.808Z,75.20
2018-09-19T01:09:43.993Z,75.00
2018-09-19T01:12:11.176Z,74.90
2018-09-19T01:14:38.348Z,75.00
2018-09-19T01:17:05.499Z,75.10
2018-09-19T01:19:32.797Z,75.20
2018-09-19T01:22:00.132Z,75.10
2018-09-19T01:24:27.288Z,75.40
2018-09-19T01:26:54.437Z,75.50
2018-09-19T01:29:21.647Z,75.70
2018-09-19T01:31:48.763Z,73.80
2018-09-19T01:34:15.918Z,72.40
2018-09-19T01:36:43.076Z,72.70
2018-09-19T01:39:10.263Z,75.10
2018-09-19T01:41:37.428Z,76.30
2018-09-19T01:44:04.584Z,76.80
2018-09-19T01:46:31.757Z,77.10
2018-09-19T01:48:58.908Z,76.90
2018-09-19T01:51:26.183Z,76.60
2018-09-19T01:53:53.339Z,73.60
2018-09-19T01:56:20.501Z,73.70
2018-09-19T01:58:47.716Z,74.60
2018-09-19T02:01:14.882Z,75.70
2018-09-19T02:03:42.041Z,76.90
2018-09-19T02:06:09.234Z,77.90
2018-09-19T02:08:36.372Z,77.50
2018-09-19T02:11:03.531Z,77.50
2018-09-19T02:13:30.690Z,77.90
2018-09-19T02:15:57.857Z,77.30
2018-09-19T02:18:25.010Z,77.40
2018-09-19T02:20:52.182Z,77.40
2018-09-19T02:23:19.332Z,77.40
2018-09-19T02:25:46.549Z,78.20
2018-09-19T02:28:13.752Z,77.60
2018-09-19T02:30:40.943Z,77.70
2018-09-19T02:33:08.102Z,77.60
2018-09-19T02:35:35.268Z,74.60
2018-09-19T02:38:02.410Z,74.50
2018-09-19T02:40:29.578Z,75.00
2018-09-19T02:42:56.729Z,75.70
2018-09-19T02:45:23.909Z,76.20
2018-09-19T02:47:51.139Z,76.90
2018-09-19T02:50:18.292Z,77.50
2018-09-19T02:52:50.062Z,78.10
2018-09-19T02:55:17.226Z,77.90
2018-09-19T02:57:44.396Z,77.90
2018-09-19T03:00:11.564Z,78.20
2018-09-19T03:02:38.787Z,78.20
2018-09-19T03:05:05.911Z,78.70
2018-09-19T03:07:33.067Z,78.80
2018-09-19T03:10:00.218Z,79.40
2018-09-19T03:12:27.410Z,79.30
2018-09-19T03:14:54.561Z,79.60
2018-09-19T03:17:21.811Z,79.70
2018-09-19T03:19:48.902Z,79.80
2018-09-19T03:22:16.063Z,79.50
2018-09-19T03:24:43.497Z,79.30
2018-09-19T03:27:10.656Z,79.70
2018-09-19T03:29:37.804Z,80.00
2018-09-19T03:32:05.133Z,80.20
2018-09-19T03:34:32.277Z,80.30
2018-09-19T03:36:59.447Z,80.50
2018-09-19T03:39:26.605Z,80.60
2018-09-19T03:41:53.791Z,80.60
2018-09-19T03:44:20.954Z,80.70
2018-09-19T03:46:48.153Z,80.90
2018-09-19T03:49:15.320Z,80.80
2018-09-19T03:51:42.476Z,80.80
2018-09-19T03:54:09.640Z,80.90
2018-09-19T03:56:36.806Z,80.80
2018-09-19T03:59:04.052Z,80.90
2018-09-19T04:01:31.222Z,80.80
2018-09-19T04:03:58.388Z,80.80
2018-09-19T04:06:25.680Z,81.00
2018-09-19T04:08:52.840Z,81.20
2018-09-19T04:11:20.015Z,81.60
2018-09-19T04:13:47.229Z,81.30
2018-09-19T04:16:14.418Z,81.60
2018-09-19T04:18:41.580Z,81.70
2018-09-19T04:21:08.771Z,81.40
2018-09-19T04:23:35.936Z,81.10
2018-09-19T04:26:03.096Z,79.10
2018-09-19T04:28:30.246Z,78.40
2018-09-19T04:30:57.408Z,79.00
2018-09-19T04:33:24.591Z,80.00
2018-09-19T04:35:51.858Z,81.00
2018-09-19T04:38:19.145Z,81.70
2018-09-19T04:40:46.298Z,82.00
2018-09-19T04:43:14.268Z,82.00
2018-09-19T04:45:41.429Z,82.20
2018-09-19T04:48:08.596Z,82.20
2018-09-19T04:50:35.758Z,82.00
2018-09-19T04:53:02.919Z,81.30
2018-09-19T04:55:30.083Z,80.00
2018-09-19T04:57:57.275Z,78.10
2018-09-19T05:00:24.436Z,77.10
2018-09-19T05:02:51.603Z,77.20
2018-09-19T05:05:18.815Z,77.50
2018-09-19T05:07:45.982Z,78.50
2018-09-19T05:10:13.136Z,79.60
2018-09-19T05:12:40.364Z,81.20
2018-09-19T05:15:07.552Z,82.50
2018-09-19T05:17:34.723Z,83.40
2018-09-19T05:20:01.918Z,83.60
2018-09-19T05:22:29.081Z,83.80
2018-09-19T05:24:56.254Z,84.30
2018-09-19T05:27:23.443Z,84.50
2018-09-19T05:29:50.742Z,84.40
2018-09-19T05:32:17.913Z,84.30
2018-09-19T05:34:45.150Z,84.50
2018-09-19T05:37:12.308Z,84.40
2018-09-19T05:39:40.595Z,84.30
2018-09-19T05:42:07.760Z,84.30
2018-09-19T05:44:34.924Z,84.20
2018-09-19T05:47:02.071Z,84.10
2018-09-19T05:49:29.236Z,83.90
2018-09-19T05:51:56.379Z,83.60
2018-09-19T05:54:23.565Z,83.30
2018-09-19T05:56:50.735Z,82.80
2018-09-19T05:59:17.958Z,82.50
2018-09-19T06:01:45.103Z,81.90
2018-09-19T06:04:12.262Z,81.50
2018-09-19T06:06:39.407Z,81.00
2018-09-19T06:09:07.805Z,80.50
2018-09-19T06:11:34.977Z,80.60
2018-09-19T06:14:02.158Z,80.50
2018-09-19T06:16:29.339Z,80.40
2018-09-19T06:18:56.496Z,80.30
2018-09-19T06:21:23.672Z,80.50
2018-09-19T06:23:50.819Z,80.50
2018-09-19T06:26:17.983Z,80.60
2018-09-19T06:28:45.262Z,81.00
2018-09-19T06:31:12.564Z,81.20
2018-09-19T06:33:39.819Z,81.20
2018-09-19T06:36:07.414Z,81.10
2018-09-19T06:38:34.594Z,81.20
2018-09-19T06:41:01.803Z,81.10
2018-09-19T06:43:29.021Z,80.50
2018-09-19T06:45:57.303Z,80.50
2018-09-19T06:48:24.458Z,80.50
2018-09-19T06:50:51.692Z,80.00
2018-09-19T06:53:18.844Z,80.60
2018-09-19T06:55:46.008Z,80.40
2018-09-19T06:58:13.165Z,80.10
2018-09-19T07:00:40.332Z,79.70
2018-09-19T07:03:07.537Z,79.80
2018-09-19T07:05:34.887Z,79.80
2018-09-19T07:08:02.064Z,79.60
2018-09-19T07:10:29.252Z,78.60
2018-09-19T07:12:56.373Z,78.80
2018-09-19T07:15:23.547Z,78.30
2018-09-19T07:17:50.709Z,78.20
2018-09-19T07:20:17.916Z,78.10
2018-09-19T07:22:45.082Z,77.80
2018-09-19T07:25:12.331Z,78.00
2018-09-19T07:27:39.411Z,77.40
2018-09-19T07:30:06.624Z,76.80
2018-09-19T07:32:33.799Z,76.60
2018-09-19T07:35:01.016Z,76.60
2018-09-19T07:37:28.173Z,76.30
2018-09-19T07:39:55.338Z,76.10
2018-09-19T07:42:29.270Z,76.10
2018-09-19T07:44:56.424Z,75.30
2018-09-19T07:47:23.585Z,74.60
2018-09-19T07:49:50.765Z,75.30
2018-09-19T07:52:17.954Z,73.90
2018-09-19T07:54:45.150Z,74.00
2018-09-19T07:57:12.255Z,73.90
2018-09-19T07:59:39.408Z,73.50
2018-09-19T08:02:06.600Z,72.30
2018-09-19T08:04:33.753Z,72.40
2018-09-19T08:07:00.913Z,72.50
2018-09-19T08:09:28.185Z,72.60
2018-09-19T08:11:55.360Z,72.60
2018-09-19T08:14:22.538Z,72.70
2018-09-19T08:16:49.712Z,72.00
2018-09-19T08:19:16.896Z,71.40
2018-09-19T08:21:44.016Z,71.50
2018-09-19T08:24:11.162Z,71.30
2018-09-19T08:26:38.341Z,71.10
2018-09-19T08:29:05.554Z,70.90
2018-09-19T08:31:32.739Z,70.20
2018-09-19T08:33:59.894Z,70.00
2018-09-19T08:36:27.081Z,70.10
2018-09-19T08:38:54.227Z,70.00
2018-09-19T08:41:21.427Z,70.10
2018-09-19T08:43:48.709Z,69.90
2018-09-19T08:46:15.873Z,69.30
2018-09-19T08:48:43.029Z,69.40
2018-09-19T08:51:10.184Z,69.20
2018-09-19T08:53:37.348Z,69.00
2018-09-19T08:56:04.523Z,68.30
2018-09-19T08:58:31.832Z,68.60
2018-09-19T09:00:58.996Z,68.80
2018-09-19T09:03:26.155Z,67.80
2018-09-19T09:05:53.307Z,66.90
2018-09-19T09:08:20.512Z,66.50
2018-09-19T09:10:47.664Z,66.00
2018-09-19T09:13:14.820Z,66.20
2018-09-19T09:15:41.968Z,65.30
2018-09-19T09:18:09.127Z,65.10
2018-09-19T09:20:36.302Z,64.50
2018-09-19T09:23:03.544Z,64.50
2018-09-19T09:25:30.691Z,64.60
2018-09-19T09:27:58.011Z,63.70
2018-09-19T09:30:25.183Z,63.20
2018-09-19T09:32:52.346Z,63.10
2018-09-19T09:35:19.503Z,63.10
2018-09-19T09:37:46.715Z,62.40
2018-09-19T09:40:13.901Z,62.10
2018-09-19T09:42:41.136Z,61.90
2018-09-19T09:45:08.294Z,60.80
2018-09-19T09:47:35.475Z,60.70
2018-09-19T09:50:02.651Z,59.90
2018-09-19T09:52:29.850Z,59.00
2018-09-19T09:54:57.023Z,59.20
2018-09-19T09:57:24.173Z,58.90
2018-09-19T09:59:51.379Z,58.90
2018-09-19T10:02:18.541Z,58.40
2018-09-19T10:04:45.698Z,57.80
2018-09-19T10:07:12.857Z,57.70
2018-09-19T10:09:40.176Z,57.80
2018-09-19T10:12:07.335Z,57.30
2018-09-19T10:14:34.595Z,56.20
2018-09-19T10:17:01.880Z,55.60
2018-09-19T10:19:29.392Z,55.60
2018-09-19T10:21:56.559Z,55.40
2018-09-19T10:24:23.714Z,54.40
2018-09-19T10:26:50.952Z,54.30
2018-09-19T10:29:18.152Z,53.60
2018-09-19T10:31:45.325Z,54.20
2018-09-19T10:34:12.496Z,54.20
2018-09-19T10:36:39.654Z,53.30
2018-09-19T10:41:41.227Z,53.40
2018-09-19T10:44:08.437Z,53.80
2018-09-19T10:46:35.592Z,53.50
2018-09-19T10:49:02.760Z,53.00
2018-09-19T10:51:29.910Z,52.70
2018-09-19T10:53:57.071Z,52.40
2018-09-19T10:56:24.228Z,51.60
2018-09-19T10:58:51.423Z,52.50
2018-09-19T11:01:18.580Z,52.10
2018-09-19T11:03:45.735Z,51.10
2018-09-19T11:06:13.096Z,49.70
2018-09-19T11:08:40.483Z,48.70
2018-09-19T11:11:07.927Z,50.30
2018-09-19T11:13:35.080Z,48.90
2018-09-19T11:16:02.250Z,49.10
2018-09-19T11:18:29.414Z,48.80
2018-09-19T11:20:56.583Z,47.70
2018-09-19T11:23:23.737Z,47.70
2018-09-19T11:25:50.892Z,48.70
2018-09-19T11:28:18.044Z,49.30
2018-09-19T11:30:45.207Z,48.10
2018-09-19T11:33:12.352Z,48.80
2018-09-19T11:35:39.520Z,48.60
2018-09-19T11:38:06.707Z,48.30
2018-09-19T11:40:33.873Z,48.00
2018-09-19T11:43:01.020Z,47.40
2018-09-19T11:45:28.185Z,46.00
2018-09-19T11:47:55.346Z,46.50
2018-09-19T11:50:22.504Z,46.40
2018-09-19T11:52:49.675Z,45.70
2018-09-19T11:55:16.851Z,45.50
2018-09-19T11:57:43.999Z,45.90
2018-09-19T12:00:11.171Z,45.10
2018-09-19T12:02:38.329Z,44.30
2018-09-19T12:05:05.567Z,44.80
2018-09-19T12:07:32.714Z,44.60
2018-09-19T12:10:00.063Z,44.50
2018-09-19T12:12:27.232Z,43.30
2018-09-19T12:14:54.559Z,44.00
2018-09-19T12:17:21.716Z,43.10
2018-09-19T12:19:48.919Z,42.00
2018-09-19T12:22:16.083Z,41.60
2018-09-19T12:24:43.271Z,41.90
2018-09-19T12:27:10.419Z,41.90
2018-09-19T12:29:37.598Z,42.20
2018-09-19T12:32:04.800Z,42.00
2018-09-19T12:34:31.961Z,41.40
2018-09-19T12:36:59.102Z,40.80
2018-09-19T12:39:26.294Z,39.60
2018-09-19T12:41:53.460Z,40.00
2018-09-19T12:44:20.616Z,39.90
2018-09-19T12:46:47.824Z,38.50
2018-09-19T12:49:15.063Z,39.50
2018-09-19T12:51:42.163Z,39.10
2018-09-19T12:54:09.332Z,39.10
2018-09-19T12:56:36.489Z,38.30
2018-09-19T12:59:03.695Z,38.60
2018-09-19T13:01:30.934Z,38.90
2018-09-19T13:03:58.088Z,37.80
2018-09-19T13:06:25.251Z,38.50
2018-09-19T13:08:52.415Z,38.60
2018-09-19T13:11:19.570Z,38.30
2018-09-19T13:13:46.719Z,37.80
2018-09-19T13:16:13.943Z,38.10
2018-09-19T13:18:41.109Z,38.10
2018-09-19T13:21:08.474Z,38.00
2018-09-19T13:23:35.618Z,37.90
2018-09-19T13:26:02.788Z,37.10
2018-09-19T13:28:29.939Z,36.90
2018-09-19T13:30:57.124Z,37.50
2018-09-19T13:33:24.283Z,37.90
2018-09-19T13:35:51.452Z,38.10
2018-09-19T13:38:18.612Z,38.00
2018-09-19T13:40:45.777Z,37.60
2018-09-19T13:43:12.967Z,38.40
2018-09-19T13:45:40.144Z,37.20
2018-09-19T13:48:07.759Z,36.80
2018-09-19T13:51:13.867Z,36.80
2018-09-19T13:53:41.051Z,37.50
2018-09-19T13:56:08.230Z,37.40
2018-09-19T13:58:35.378Z,37.50
2018-09-19T14:01:02.534Z,37.60
2018-09-19T14:03:29.755Z,37.30
2018-09-19T14:05:56.940Z,37.50
2018-09-19T14:08:24.108Z,38.30
2018-09-19T14:10:51.456Z,38.50
2018-09-19T14:13:18.625Z,37.80
2018-09-19T14:15:45.779Z,38.50
2018-09-19T14:18:13.166Z,38.80
2018-09-19T14:20:40.424Z,39.50
2018-09-19T14:23:07.583Z,40.30
2018-09-19T14:25:35.188Z,40.50
2018-09-19T14:28:02.454Z,41.30
2018-09-19T14:30:29.748Z,41.80
2018-09-19T14:32:58.100Z,42.30
2018-09-19T14:35:25.350Z,40.90
2018-09-19T14:37:52.460Z,40.60
2018-09-19T14:40:19.639Z,40.30
2018-09-19T14:42:46.813Z,39.30
2018-09-19T14:45:13.971Z,39.50
2018-09-19T14:47:41.141Z,39.50
2018-09-19T14:50:08.295Z,38.70
2018-09-19T14:52:35.514Z,39.10
2018-09-19T14:55:02.696Z,39.10
2018-09-19T14:57:29.923Z,39.10
2018-09-19T14:59:57.147Z,38.10
2018-09-19T15:02:24.321Z,37.60
2018-09-19T15:04:51.482Z,37.50
2018-09-19T15:07:18.713Z,38.50
2018-09-19T15:09:45.955Z,37.40
2018-09-19T15:12:13.215Z,37.40
2018-09-19T15:14:40.459Z,37.50
2018-09-19T15:17:07.731Z,37.90
2018-09-19T15:19:34.982Z,38.30
2018-09-19T15:22:02.322Z,37.90
2018-09-19T15:24:29.639Z,38.60
2018-09-19T15:26:56.736Z,38.50
2018-09-19T15:31:57.852Z,39.30
2018-09-19T15:34:24.996Z,39.30
2018-09-19T15:36:52.161Z,39.40
2018-09-19T15:39:19.337Z,40.10
2018-09-19T15:41:46.484Z,40.10
2018-09-19T15:44:13.702Z,40.70
2018-09-19T15:46:40.836Z,40.10
2018-09-19T15:49:08.011Z,40.60
2018-09-19T15:51:35.168Z,40.60
2018-09-19T15:54:02.679Z,40.20
2018-09-19T15:56:29.828Z,41.30
2018-09-19T15:58:57.063Z,41.00
2018-09-19T16:01:24.211Z,41.40
2018-09-19T16:03:51.439Z,41.50
2018-09-19T16:06:18.653Z,42.20
2018-09-19T16:08:45.747Z,42.50
2018-09-19T16:11:13.192Z,43.30
2018-09-19T16:13:40.480Z,42.60
2018-09-19T16:16:07.770Z,43.40
2018-09-19T16:18:34.969Z,43.30
2018-09-19T16:21:02.223Z,43.90
2018-09-19T16:23:29.350Z,43.80
2018-09-19T16:25:56.520Z,43.40
2018-09-19T16:28:23.792Z,43.70
2018-09-19T16:30:50.972Z,43.70
2018-09-19T16:33:18.152Z,44.20
2018-09-19T16:35:45.311Z,43.60
2018-09-19T16:38:12.656Z,44.20
2018-09-19T16:40:39.924Z,43.50
2018-09-19T16:43:08.168Z,43.30
2018-09-19T16:45:35.412Z,43.30
2018-09-19T16:48:02.552Z,43.50
2018-09-19T16:50:29.761Z,44.90
2018-09-19T16:52:56.951Z,45.80
2018-09-19T16:55:24.072Z,45.10
2018-09-19T16:57:51.416Z,45.20
2018-09-19T17:00:18.586Z,46.00
2018-09-19T17:02:45.821Z,46.40
2018-09-19T17:05:13.177Z,47.30
2018-09-19T17:07:40.444Z,47.70
2018-09-19T17:10:07.625Z,47.70
2018-09-19T17:12:34.833Z,48.40
2018-09-19T17:15:02.031Z,48.70
2018-09-19T17:17:29.265Z,48.50
2018-09-19T17:19:56.429Z,48.90
2018-09-19T17:22:23.592Z,49.70
2018-09-19T17:24:50.796Z,49.50
2018-09-19T17:27:18.060Z,49.30
2018-09-19T17:29:45.305Z,50.50
2018-09-19T17:32:12.503Z,50.70
2018-09-19T17:34:39.707Z,51.20
2018-09-19T17:37:06.958Z,51.60
2018-09-19T17:39:34.080Z,51.60
2018-09-19T17:42:01.252Z,52.40
2018-09-19T17:44:28.541Z,52.40
2018-09-19T17:46:55.808Z,52.60
2018-09-19T17:49:22.978Z,52.60
2018-09-19T17:51:50.211Z,52.20
2018-09-19T17:54:17.460Z,51.80
2018-09-19T17:56:44.685Z,52.40
2018-09-19T17:59:13.746Z,52.20
2018-09-19T18:01:41.015Z,53.00
2018-09-19T18:04:08.184Z,53.30
2018-09-19T18:06:35.448Z,52.70
2018-09-19T18:09:02.839Z,52.90
2018-09-19T18:11:30.024Z,53.30
2018-09-19T18:13:57.211Z,52.90
2018-09-19T18:16:24.659Z,53.30
2018-09-19T18:18:52.581Z,53.30
2018-09-19T18:21:19.921Z,53.40
2018-09-19T18:23:47.087Z,53.80
2018-09-19T18:26:14.270Z,54.00
2018-09-19T18:28:41.425Z,54.10
2018-09-19T18:31:08.696Z,54.30
2018-09-19T18:33:35.871Z,54.70
2018-09-19T18:36:03.052Z,54.40
2018-09-19T18:38:30.212Z,54.50
2018-09-19T18:40:57.449Z,54.80
2018-09-19T18:43:24.620Z,55.00
2018-09-19T18:45:51.911Z,55.20
2018-09-19T18:48:19.068Z,55.40
2018-09-19T18:50:46.271Z,55.40
2018-09-19T18:53:20.291Z,55.40
2018-09-19T18:55:47.544Z,55.50
2018-09-19T19:00:48.607Z,55.00
2018-09-19T19:03:15.779Z,53.90
2018-09-19T19:05:43.012Z,54.00
2018-09-19T19:08:10.172Z,54.40
2018-09-19T19:10:37.348Z,55.20
2018-09-19T19:13:04.562Z,55.60
2018-09-19T19:15:31.740Z,56.00
2018-09-19T19:17:58.947Z,56.60
2018-09-19T19:20:26.145Z,56.60
2018-09-19T19:22:53.311Z,56.90
2018-09-19T19:25:20.467Z,57.10
2018-09-19T19:27:47.640Z,57.20
2018-09-19T19:30:14.842Z,57.60
2018-09-19T19:32:41.972Z,57.90
2018-09-19T19:35:09.143Z,57.90
2018-09-19T19:37:36.373Z,58.00
2018-09-19T19:40:03.595Z,57.90
2018-09-19T19:42:30.893Z,57.90
2018-09-19T19:44:58.164Z,58.50
2018-09-19T19:47:25.373Z,57.90
2018-09-19T19:49:52.548Z,57.70
2018-09-19T19:52:19.783Z,57.80
2018-09-19T19:54:47.321Z,57.80
2018-09-19T19:57:14.583Z,58.00
2018-09-19T19:59:41.726Z,58.10
2018-09-19T20:02:08.905Z,58.30
2018-09-19T20:04:36.131Z,58.50
2018-09-19T20:07:04.045Z,58.40
2018-09-19T20:09:31.246Z,58.50
2018-09-19T20:11:58.414Z,58.70
2018-09-19T20:14:25.563Z,58.80
2018-09-19T20:16:52.819Z,59.60
2018-09-19T20:19:19.980Z,59.30
2018-09-19T20:21:47.149Z,59.30
2018-09-19T20:24:14.321Z,59.30
2018-09-19T20:26:41.607Z,59.20
2018-09-19T20:29:08.872Z,59.20
2018-09-19T20:31:36.053Z,59.20
2018-09-19T20:34:03.290Z,59.10
2018-09-19T20:36:30.448Z,59.00
2018-09-19T20:38:57.608Z,59.20
2018-09-19T20:41:24.923Z,59.20
2018-09-19T20:43:52.098Z,59.20
2018-09-19T20:46:20.389Z,59.40
2018-09-19T20:48:47.544Z,59.40
2018-09-19T20:51:14.744Z,59.30
2018-09-19T20:53:41.949Z,59.50
2018-09-19T20:56:09.152Z,59.50
2018-09-19T20:58:36.679Z,58.70
2018-09-19T21:01:03.831Z,59.20
2018-09-19T21:03:30.995Z,58.80
2018-09-19T21:05:58.200Z,57.70
2018-09-19T21:08:25.364Z,57.90
2018-09-19T21:10:52.612Z,57.90
2018-09-19T21:13:19.784Z,58.80
2018-09-19T21:15:46.983Z,59.00
2018-09-19T21:18:14.139Z,59.30
2018-09-19T21:20:41.304Z,58.70
2018-09-19T21:23:08.527Z,58.40
2018-09-19T21:25:35.700Z,58.40
2018-09-19T21:28:02.924Z,59.40
2018-09-19T21:30:30.085Z,60.00
2018-09-19T21:32:57.246Z,60.50
2018-09-19T21:35:24.412Z,61.00
2018-09-19T21:37:51.581Z,61.40
2018-09-19T21:40:18.727Z,61.60
2018-09-19T21:42:45.931Z,61.70
2018-09-19T21:45:13.075Z,62.00
2018-09-19T21:47:40.231Z,62.00
2018-09-19T21:50:07.396Z,61.90
2018-09-19T21:52:34.539Z,61.90
2018-09-19T21:55:01.928Z,62.20
2018-09-19T21:57:29.156Z,62.40
2018-09-19T21:59:56.353Z,62.70
2018-09-19T22:02:23.504Z,62.90
2018-09-19T22:04:50.668Z,62.90
2018-09-19T22:07:17.820Z,63.20
2018-09-19T22:09:44.982Z,63.40
2018-09-19T22:12:12.137Z,63.40
2018-09-19T22:14:40.928Z,63.50
2018-09-19T22:17:08.123Z,63.70
2018-09-19T22:19:35.341Z,63.80
2018-09-19T22:22:02.662Z,63.90
2018-09-19T22:24:29.827Z,63.80
2018-09-19T22:26:57.115Z,64.20
2018-09-19T22:29:24.275Z,64.10
2018-09-19T22:31:51.440Z,64.30
2018-09-19T22:34:18.600Z,64.50
2018-09-19T22:36:45.744Z,64.60
2018-09-19T22:39:12.900Z,64.50
2018-09-19T22:41:40.060Z,64.60
2018-09-19T22:44:07.233Z,64.50
2018-09-19T22:46:34.388Z,64.80
2018-09-19T22:49:01.543Z,64.70
2018-09-19T22:51:28.687Z,64.80
2018-09-19T22:53:55.895Z,65.30
2018-09-19T22:56:23.044Z,65.40
2018-09-19T22:58:50.196Z,65.30
2018-09-19T23:01:17.404Z,63.40
2018-09-19T23:03:44.564Z,64.20
2018-09-19T23:06:11.741Z,64.50
2018-09-19T23:08:38.896Z,64.60
2018-09-19T23:11:06.117Z,64.50
2018-09-19T23:13:33.271Z,64.50
2018-09-19T23:16:00.615Z,64.60
2018-09-19T23:18:27.784Z,64.30
2018-09-19T23:20:54.954Z,64.50
2018-09-19T23:23:22.136Z,64.60
2018-09-19T23:25:49.311Z,64.40
2018-09-19T23:28:16.464Z,64.80
2018-09-19T23:30:43.640Z,65.60
2018-09-19T23:33:10.799Z,66.30
2018-09-19T23:35:38.036Z,66.80
2018-09-19T23:38:05.234Z,67.10
2018-09-19T23:40:32.823Z,67.30
2018-09-19T23:42:59.980Z,67.40
2018-09-19T23:45:27.272Z,67.10
2018-09-19T23:47:54.449Z,66.90
2018-09-19T23:50:21.608Z,66.70
2018-09-19T23:52:48.761Z,66.70
2018-09-19T23:55:15.924Z,66.00
2018-09-19T23:57:43.114Z,66.00
